sensor_id;sensor_type;location;lat;lon;timestamp;temperature;humidity
4739;DHT22;2383;48.632;10.156;2023-03-03T00:03:50;2.80;92.40
4739;DHT22;2383;48.632;10.156;2023-03-03T00:07:52;2.80;92.40
4739;DHT22;2383;48.632;10.156;2023-03-03T00:11:56;2.90;92.40
4739;DHT22;2383;48.632;10.156;2023-03-03T00:20:37;3.00;92.50
4739;DHT22;2383;48.632;10.156;2023-03-03T00:24:39;3.10;92.60
4739;DHT22;2383;48.632;10.156;2023-03-03T00:28:47;3.10;92.40
4739;DHT22;2383;48.632;10.156;2023-03-03T00:32:50;3.00;92.60
4739;DHT22;2383;48.632;10.156;2023-03-03T00:36:55;3.00;92.60
4739;DHT22;2383;48.632;10.156;2023-03-03T00:40:57;3.20;92.60
4739;DHT22;2383;48.632;10.156;2023-03-03T00:44:59;3.40;92.30
4739;DHT22;2383;48.632;10.156;2023-03-03T00:49:04;3.20;92.40
4739;DHT22;2383;48.632;10.156;2023-03-03T00:53:18;3.30;92.70
4739;DHT22;2383;48.632;10.156;2023-03-03T00:57:20;2.70;93.00
4739;DHT22;2383;48.632;10.156;2023-03-03T01:01:24;3.10;92.90
4739;DHT22;2383;48.632;10.156;2023-03-03T01:05:27;3.30;92.60
4739;DHT22;2383;48.632;10.156;2023-03-03T01:09:30;3.50;92.60
4739;DHT22;2383;48.632;10.156;2023-03-03T01:13:33;3.60;92.50
4739;DHT22;2383;48.632;10.156;2023-03-03T01:17:38;3.60;92.40
4739;DHT22;2383;48.632;10.156;2023-03-03T01:21:40;3.50;92.60
4739;DHT22;2383;48.632;10.156;2023-03-03T01:25:42;3.50;92.70
4739;DHT22;2383;48.632;10.156;2023-03-03T01:29:44;3.50;92.60
4739;DHT22;2383;48.632;10.156;2023-03-03T01:33:46;3.60;92.60
4739;DHT22;2383;48.632;10.156;2023-03-03T01:37:48;3.80;92.60
4739;DHT22;2383;48.632;10.156;2023-03-03T01:41:50;3.60;92.50
4739;DHT22;2383;48.632;10.156;2023-03-03T01:50:01;3.70;92.50
4739;DHT22;2383;48.632;10.156;2023-03-03T01:54:08;3.70;92.50
4739;DHT22;2383;48.632;10.156;2023-03-03T01:59:00;3.70;92.50
4739;DHT22;2383;48.632;10.156;2023-03-03T02:03:05;3.70;92.50
4739;DHT22;2383;48.632;10.156;2023-03-03T02:07:11;3.60;92.40
4739;DHT22;2383;48.632;10.156;2023-03-03T02:11:15;3.70;92.50
4739;DHT22;2383;48.632;10.156;2023-03-03T02:23:49;3.70;92.40
4739;DHT22;2383;48.632;10.156;2023-03-03T02:27:55;3.60;92.50
4739;DHT22;2383;48.632;10.156;2023-03-03T02:31:58;3.30;92.70
4739;DHT22;2383;48.632;10.156;2023-03-03T02:36:00;3.40;93.00
4739;DHT22;2383;48.632;10.156;2023-03-03T02:40:02;3.50;92.80
4739;DHT22;2383;48.632;10.156;2023-03-03T02:44:09;3.60;92.80
4739;DHT22;2383;48.632;10.156;2023-03-03T02:48:11;3.40;93.00
4739;DHT22;2383;48.632;10.156;2023-03-03T02:52:13;3.50;92.90
4739;DHT22;2383;48.632;10.156;2023-03-03T02:56:20;3.60;92.90
4739;DHT22;2383;48.632;10.156;2023-03-03T03:00:22;3.50;92.70
4739;DHT22;2383;48.632;10.156;2023-03-03T03:04:26;3.30;92.80
4739;DHT22;2383;48.632;10.156;2023-03-03T03:08:29;3.10;93.00
4739;DHT22;2383;48.632;10.156;2023-03-03T03:12:31;3.10;93.10
4739;DHT22;2383;48.632;10.156;2023-03-03T03:16:35;3.30;93.00
4739;DHT22;2383;48.632;10.156;2023-03-03T03:20:38;3.30;93.00
4739;DHT22;2383;48.632;10.156;2023-03-03T03:24:43;3.50;93.00
4739;DHT22;2383;48.632;10.156;2023-03-03T03:28:47;3.50;92.80
4739;DHT22;2383;48.632;10.156;2023-03-03T03:32:50;3.70;92.80
4739;DHT22;2383;48.632;10.156;2023-03-03T03:36:52;3.50;92.70
4739;DHT22;2383;48.632;10.156;2023-03-03T03:40:57;3.40;92.60
4739;DHT22;2383;48.632;10.156;2023-03-03T03:44:59;3.50;92.70
4739;DHT22;2383;48.632;10.156;2023-03-03T03:49:01;3.50;92.70
4739;DHT22;2383;48.632;10.156;2023-03-03T03:53:04;3.30;92.60
4739;DHT22;2383;48.632;10.156;2023-03-03T03:57:06;3.30;92.60
4739;DHT22;2383;48.632;10.156;2023-03-03T04:01:09;3.20;92.90
4739;DHT22;2383;48.632;10.156;2023-03-03T04:05:18;3.40;92.70
4739;DHT22;2383;48.632;10.156;2023-03-03T04:09:21;3.70;92.70
4739;DHT22;2383;48.632;10.156;2023-03-03T04:13:23;3.50;92.80
4739;DHT22;2383;48.632;10.156;2023-03-03T04:17:29;3.50;92.70
4739;DHT22;2383;48.632;10.156;2023-03-03T04:21:31;3.70;92.60
4739;DHT22;2383;48.632;10.156;2023-03-03T04:25:34;3.80;92.60
4739;DHT22;2383;48.632;10.156;2023-03-03T04:29:45;3.50;92.70
4739;DHT22;2383;48.632;10.156;2023-03-03T04:33:47;3.60;93.00
4739;DHT22;2383;48.632;10.156;2023-03-03T04:37:50;3.70;93.00
4739;DHT22;2383;48.632;10.156;2023-03-03T04:41:52;3.80;92.70
4739;DHT22;2383;48.632;10.156;2023-03-03T04:45:54;3.70;92.90
4739;DHT22;2383;48.632;10.156;2023-03-03T04:49:57;3.50;92.80
4739;DHT22;2383;48.632;10.156;2023-03-03T04:53:59;3.60;92.80
4739;DHT22;2383;48.632;10.156;2023-03-03T04:58:02;3.60;92.70
4739;DHT22;2383;48.632;10.156;2023-03-03T05:02:05;3.70;92.50
4739;DHT22;2383;48.632;10.156;2023-03-03T05:06:07;3.70;92.50
4739;DHT22;2383;48.632;10.156;2023-03-03T05:10:09;3.80;92.50
4739;DHT22;2383;48.632;10.156;2023-03-03T05:14:11;3.70;92.50
4739;DHT22;2383;48.632;10.156;2023-03-03T05:18:13;3.80;92.50
4739;DHT22;2383;48.632;10.156;2023-03-03T05:22:15;3.90;92.50
4739;DHT22;2383;48.632;10.156;2023-03-03T05:26:17;3.90;92.30
4739;DHT22;2383;48.632;10.156;2023-03-03T05:30:19;4.00;91.80
4739;DHT22;2383;48.632;10.156;2023-03-03T05:34:21;3.90;92.30
4739;DHT22;2383;48.632;10.156;2023-03-03T05:38:24;4.00;91.90
4739;DHT22;2383;48.632;10.156;2023-03-03T05:42:25;4.00;91.90
4739;DHT22;2383;48.632;10.156;2023-03-03T05:46:27;4.00;92.00
4739;DHT22;2383;48.632;10.156;2023-03-03T05:50:30;3.90;92.60
4739;DHT22;2383;48.632;10.156;2023-03-03T05:54:32;3.90;92.60
4739;DHT22;2383;48.632;10.156;2023-03-03T05:58:33;4.00;92.10
4739;DHT22;2383;48.632;10.156;2023-03-03T06:02:35;3.80;92.80
4739;DHT22;2383;48.632;10.156;2023-03-03T06:06:37;3.90;92.90
4739;DHT22;2383;48.632;10.156;2023-03-03T06:10:39;3.90;92.70
4739;DHT22;2383;48.632;10.156;2023-03-03T06:14:43;3.90;92.70
4739;DHT22;2383;48.632;10.156;2023-03-03T06:18:45;3.80;92.70
4739;DHT22;2383;48.632;10.156;2023-03-03T06:22:47;3.80;92.80
4739;DHT22;2383;48.632;10.156;2023-03-03T06:26:50;3.80;93.00
4739;DHT22;2383;48.632;10.156;2023-03-03T06:30:53;3.80;92.70
4739;DHT22;2383;48.632;10.156;2023-03-03T06:34:55;3.80;92.70
4739;DHT22;2383;48.632;10.156;2023-03-03T06:38:57;3.90;92.70
4739;DHT22;2383;48.632;10.156;2023-03-03T06:42:59;3.90;92.70
4739;DHT22;2383;48.632;10.156;2023-03-03T06:47:03;3.80;92.50
4739;DHT22;2383;48.632;10.156;2023-03-03T06:51:30;3.70;92.50
4739;DHT22;2383;48.632;10.156;2023-03-03T06:55:34;3.90;92.70
4739;DHT22;2383;48.632;10.156;2023-03-03T06:59:36;3.90;92.50
4739;DHT22;2383;48.632;10.156;2023-03-03T07:03:38;4.00;92.10
4739;DHT22;2383;48.632;10.156;2023-03-03T07:07:40;3.70;92.50
4739;DHT22;2383;48.632;10.156;2023-03-03T07:11:42;3.80;92.60
4739;DHT22;2383;48.632;10.156;2023-03-03T07:15:48;3.90;92.50
4739;DHT22;2383;48.632;10.156;2023-03-03T07:19:51;4.00;92.00
4739;DHT22;2383;48.632;10.156;2023-03-03T07:23:53;4.00;92.00
4739;DHT22;2383;48.632;10.156;2023-03-03T07:27:59;3.80;92.40
4739;DHT22;2383;48.632;10.156;2023-03-03T07:32:02;3.90;92.50
4739;DHT22;2383;48.632;10.156;2023-03-03T07:36:17;3.90;92.50
4739;DHT22;2383;48.632;10.156;2023-03-03T07:40:29;3.90;92.30
4739;DHT22;2383;48.632;10.156;2023-03-03T07:44:36;3.60;92.30
4739;DHT22;2383;48.632;10.156;2023-03-03T07:48:40;3.70;92.50
4739;DHT22;2383;48.632;10.156;2023-03-03T07:52:51;3.40;92.40
4739;DHT22;2383;48.632;10.156;2023-03-03T07:57:18;3.20;92.90
4739;DHT22;2383;48.632;10.156;2023-03-03T08:01:33;3.30;92.70
4739;DHT22;2383;48.632;10.156;2023-03-03T08:05:48;3.70;92.40
4739;DHT22;2383;48.632;10.156;2023-03-03T08:13:57;4.00;91.90
4739;DHT22;2383;48.632;10.156;2023-03-03T08:18:00;3.60;92.70
4739;DHT22;2383;48.632;10.156;2023-03-03T08:22:12;3.60;92.50
4739;DHT22;2383;48.632;10.156;2023-03-03T08:26:15;3.80;92.40
4739;DHT22;2383;48.632;10.156;2023-03-03T08:30:17;3.80;92.40
4739;DHT22;2383;48.632;10.156;2023-03-03T08:34:19;4.00;91.80
4739;DHT22;2383;48.632;10.156;2023-03-03T08:38:22;4.10;91.70
4739;DHT22;2383;48.632;10.156;2023-03-03T08:42:24;4.30;91.60
4739;DHT22;2383;48.632;10.156;2023-03-03T08:46:25;4.40;91.60
4739;DHT22;2383;48.632;10.156;2023-03-03T08:50:29;3.70;92.80
4739;DHT22;2383;48.632;10.156;2023-03-03T08:54:31;3.90;92.60
4739;DHT22;2383;48.632;10.156;2023-03-03T08:58:33;4.40;91.90
4739;DHT22;2383;48.632;10.156;2023-03-03T09:02:37;4.40;91.90
4739;DHT22;2383;48.632;10.156;2023-03-03T09:06:39;4.50;91.80
4739;DHT22;2383;48.632;10.156;2023-03-03T09:10:41;4.70;91.50
4739;DHT22;2383;48.632;10.156;2023-03-03T09:14:43;4.80;91.10
4739;DHT22;2383;48.632;10.156;2023-03-03T09:18:45;4.60;90.80
4739;DHT22;2383;48.632;10.156;2023-03-03T09:22:48;4.40;90.90
4739;DHT22;2383;48.632;10.156;2023-03-03T09:26:51;2.80;92.20
4739;DHT22;2383;48.632;10.156;2023-03-03T09:30:57;3.50;92.00
4739;DHT22;2383;48.632;10.156;2023-03-03T09:35:00;4.20;91.10
4739;DHT22;2383;48.632;10.156;2023-03-03T09:39:24;4.30;90.70
4739;DHT22;2383;48.632;10.156;2023-03-03T09:57:12;3.60;91.30
4739;DHT22;2383;48.632;10.156;2023-03-03T10:10:28;3.90;90.90
4739;DHT22;2383;48.632;10.156;2023-03-03T10:15:02;3.20;91.80
4739;DHT22;2383;48.632;10.156;2023-03-03T10:33:11;4.20;90.20
4739;DHT22;2383;48.632;10.156;2023-03-03T10:46:11;3.10;91.00
4739;DHT22;2383;48.632;10.156;2023-03-03T10:50:26;3.40;91.10
4739;DHT22;2383;48.632;10.156;2023-03-03T11:08:13;2.70;91.60
4739;DHT22;2383;48.632;10.156;2023-03-03T11:12:07;2.70;91.80
4739;DHT22;2383;48.632;10.156;2023-03-03T11:16:44;4.20;89.40
4739;DHT22;2383;48.632;10.156;2023-03-03T11:21:01;5.10;87.30
4739;DHT22;2383;48.632;10.156;2023-03-03T11:33:43;4.90;87.70
4739;DHT22;2383;48.632;10.156;2023-03-03T11:46:47;5.50;85.70
4739;DHT22;2383;48.632;10.156;2023-03-03T11:50:58;5.90;86.40
4739;DHT22;2383;48.632;10.156;2023-03-03T11:55:08;5.70;86.10
4739;DHT22;2383;48.632;10.156;2023-03-03T12:03:46;5.80;83.90
4739;DHT22;2383;48.632;10.156;2023-03-03T12:12:23;5.00;85.50
4739;DHT22;2383;48.632;10.156;2023-03-03T12:46:39;5.60;86.60
4739;DHT22;2383;48.632;10.156;2023-03-03T12:51:06;5.90;86.40
4739;DHT22;2383;48.632;10.156;2023-03-03T13:13:02;6.30;84.60
4739;DHT22;2383;48.632;10.156;2023-03-03T13:29:55;6.90;84.30
4739;DHT22;2383;48.632;10.156;2023-03-03T13:33:58;6.20;84.20
4739;DHT22;2383;48.632;10.156;2023-03-03T13:38:01;6.60;84.50
4739;DHT22;2383;48.632;10.156;2023-03-03T13:42:26;6.60;84.10
4739;DHT22;2383;48.632;10.156;2023-03-03T13:51:15;6.90;83.50
4739;DHT22;2383;48.632;10.156;2023-03-03T13:55:21;7.10;82.90
4739;DHT22;2383;48.632;10.156;2023-03-03T13:59:45;7.30;83.00
4739;DHT22;2383;48.632;10.156;2023-03-03T14:03:55;7.20;81.90
4739;DHT22;2383;48.632;10.156;2023-03-03T14:16:56;7.60;82.10
4739;DHT22;2383;48.632;10.156;2023-03-03T14:21:06;7.50;81.30
4739;DHT22;2383;48.632;10.156;2023-03-03T14:25:14;7.90;81.10
4739;DHT22;2383;48.632;10.156;2023-03-03T14:33:30;7.90;81.30
4739;DHT22;2383;48.632;10.156;2023-03-03T14:37:42;7.70;81.40
4739;DHT22;2383;48.632;10.156;2023-03-03T14:41:45;7.60;81.10
4739;DHT22;2383;48.632;10.156;2023-03-03T14:45:47;7.10;83.20
4739;DHT22;2383;48.632;10.156;2023-03-03T14:49:50;7.50;82.30
4739;DHT22;2383;48.632;10.156;2023-03-03T14:53:53;7.80;81.40
4739;DHT22;2383;48.632;10.156;2023-03-03T14:57:56;7.80;81.40
4739;DHT22;2383;48.632;10.156;2023-03-03T15:06:54;6.20;83.40
4739;DHT22;2383;48.632;10.156;2023-03-03T15:11:12;5.20;85.50
4739;DHT22;2383;48.632;10.156;2023-03-03T15:15:23;4.70;86.10
4739;DHT22;2383;48.632;10.156;2023-03-03T15:24:07;5.60;85.80
4739;DHT22;2383;48.632;10.156;2023-03-03T15:32:51;6.70;84.80
4739;DHT22;2383;48.632;10.156;2023-03-03T15:46:19;7.20;83.70
4739;DHT22;2383;48.632;10.156;2023-03-03T16:04:08;7.30;83.20
4739;DHT22;2383;48.632;10.156;2023-03-03T16:08:16;7.70;82.80
4739;DHT22;2383;48.632;10.156;2023-03-03T16:29:49;6.50;83.20
4739;DHT22;2383;48.632;10.156;2023-03-03T16:38:29;6.90;83.50
4739;DHT22;2383;48.632;10.156;2023-03-03T16:42:33;7.50;82.50
4739;DHT22;2383;48.632;10.156;2023-03-03T16:46:44;6.40;83.20
4739;DHT22;2383;48.632;10.156;2023-03-03T16:55:06;6.80;83.40
4739;DHT22;2383;48.632;10.156;2023-03-03T17:07:48;7.00;83.20
4739;DHT22;2383;48.632;10.156;2023-03-03T17:12:10;7.20;82.80
4739;DHT22;2383;48.632;10.156;2023-03-03T17:16:43;7.30;83.00
4739;DHT22;2383;48.632;10.156;2023-03-03T17:20:55;7.40;82.90
4739;DHT22;2383;48.632;10.156;2023-03-03T17:25:43;7.40;83.00
4739;DHT22;2383;48.632;10.156;2023-03-03T17:43:28;5.90;85.70
4739;DHT22;2383;48.632;10.156;2023-03-03T17:47:12;5.70;85.70
4739;DHT22;2383;48.632;10.156;2023-03-03T17:55:43;5.80;86.10
4739;DHT22;2383;48.632;10.156;2023-03-03T18:17:33;5.30;86.30
4739;DHT22;2383;48.632;10.156;2023-03-03T18:25:59;4.70;87.60
4739;DHT22;2383;48.632;10.156;2023-03-03T18:38:26;4.70;87.80
4739;DHT22;2383;48.632;10.156;2023-03-03T18:42:40;4.50;87.40
4739;DHT22;2383;48.632;10.156;2023-03-03T18:46:48;4.40;87.80
4739;DHT22;2383;48.632;10.156;2023-03-03T18:50:50;4.40;88.70
4739;DHT22;2383;48.632;10.156;2023-03-03T19:11:59;3.70;89.50
4739;DHT22;2383;48.632;10.156;2023-03-03T19:16:07;3.80;89.90
4739;DHT22;2383;48.632;10.156;2023-03-03T19:20:11;3.80;90.30
4739;DHT22;2383;48.632;10.156;2023-03-03T19:24:26;3.70;90.30
4739;DHT22;2383;48.632;10.156;2023-03-03T19:28:35;3.60;90.60
4739;DHT22;2383;48.632;10.156;2023-03-03T19:33:06;3.60;90.60
4739;DHT22;2383;48.632;10.156;2023-03-03T19:41:58;3.40;90.60
4739;DHT22;2383;48.632;10.156;2023-03-03T20:16:41;3.30;90.70
4739;DHT22;2383;48.632;10.156;2023-03-03T20:25:28;3.30;90.70
4739;DHT22;2383;48.632;10.156;2023-03-03T20:34:22;3.30;90.70
4739;DHT22;2383;48.632;10.156;2023-03-03T20:47:47;2.70;91.40
4739;DHT22;2383;48.632;10.156;2023-03-03T21:00:25;2.40;91.40
4739;DHT22;2383;48.632;10.156;2023-03-03T21:04:29;1.90;91.90
4739;DHT22;2383;48.632;10.156;2023-03-03T21:08:47;2.50;91.40
4739;DHT22;2383;48.632;10.156;2023-03-03T21:12:55;2.70;90.80
4739;DHT22;2383;48.632;10.156;2023-03-03T21:16:59;1.80;91.60
4739;DHT22;2383;48.632;10.156;2023-03-03T21:21:03;1.70;91.80
4739;DHT22;2383;48.632;10.156;2023-03-03T21:25:05;1.50;92.20
4739;DHT22;2383;48.632;10.156;2023-03-03T21:29:07;1.60;92.10
4739;DHT22;2383;48.632;10.156;2023-03-03T21:33:09;1.90;91.80
4739;DHT22;2383;48.632;10.156;2023-03-03T21:37:42;1.70;91.80
4739;DHT22;2383;48.632;10.156;2023-03-03T21:45:53;1.80;91.80
4739;DHT22;2383;48.632;10.156;2023-03-03T21:49:56;1.30;92.20
4739;DHT22;2383;48.632;10.156;2023-03-03T21:53:57;1.90;91.60
4739;DHT22;2383;48.632;10.156;2023-03-03T21:57:59;1.60;91.50
4739;DHT22;2383;48.632;10.156;2023-03-03T22:02:02;1.40;91.70
4739;DHT22;2383;48.632;10.156;2023-03-03T22:06:04;1.00;92.10
4739;DHT22;2383;48.632;10.156;2023-03-03T22:10:06;1.10;92.40
4739;DHT22;2383;48.632;10.156;2023-03-03T22:14:10;0.60;92.50
4739;DHT22;2383;48.632;10.156;2023-03-03T22:18:13;1.20;92.30
4739;DHT22;2383;48.632;10.156;2023-03-03T22:22:15;1.10;92.10
4739;DHT22;2383;48.632;10.156;2023-03-03T22:26:17;0.00;93.10
4739;DHT22;2383;48.632;10.156;2023-03-03T22:30:19;-0.40;94.00
4739;DHT22;2383;48.632;10.156;2023-03-03T22:34:21;-1.10;94.60
4739;DHT22;2383;48.632;10.156;2023-03-03T22:38:23;-0.70;94.10
4739;DHT22;2383;48.632;10.156;2023-03-03T22:42:25;-1.30;94.70
4739;DHT22;2383;48.632;10.156;2023-03-03T22:46:27;-0.20;94.40
4739;DHT22;2383;48.632;10.156;2023-03-03T22:50:29;-0.20;94.00
4739;DHT22;2383;48.632;10.156;2023-03-03T22:54:31;-0.40;93.80
4739;DHT22;2383;48.632;10.156;2023-03-03T22:58:33;0.30;93.50
4739;DHT22;2383;48.632;10.156;2023-03-03T23:02:35;-0.10;93.50
4739;DHT22;2383;48.632;10.156;2023-03-03T23:06:37;-0.20;93.70
4739;DHT22;2383;48.632;10.156;2023-03-03T23:10:38;-0.40;93.80
4739;DHT22;2383;48.632;10.156;2023-03-03T23:14:40;-1.10;94.50
4739;DHT22;2383;48.632;10.156;2023-03-03T23:18:42;-0.30;93.80
4739;DHT22;2383;48.632;10.156;2023-03-03T23:22:45;-0.30;93.60
4739;DHT22;2383;48.632;10.156;2023-03-03T23:26:47;0.00;93.40
4739;DHT22;2383;48.632;10.156;2023-03-03T23:30:52;-0.30;93.30
4739;DHT22;2383;48.632;10.156;2023-03-03T23:34:54;-0.50;93.70
4739;DHT22;2383;48.632;10.156;2023-03-03T23:38:56;-1.00;94.10
4739;DHT22;2383;48.632;10.156;2023-03-03T23:42:58;-0.70;94.00
4739;DHT22;2383;48.632;10.156;2023-03-03T23:46:59;-0.50;93.80
4739;DHT22;2383;48.632;10.156;2023-03-03T23:51:01;-0.50;93.80
4739;DHT22;2383;48.632;10.156;2023-03-03T23:55:04;-1.00;93.80
4739;DHT22;2383;48.632;10.156;2023-03-03T23:59:07;-0.40;93.80
